MGQ weather

Aden Adde International Airport
Mogadishu, Banaadir, Somalia

Public forecast

Using degrees Celsius for public forecast. Weather courtesy of forecast.io.

Current aviation weather report (METAR) for Aden Adde International Airport

Retrieved 2019/10/19 03:00 UTC (4 minutes ago):

HCMM 190300Z 21007KT 9999 SCT016TCU 27/22 Q1010

Closest aviation forecast (TAF) to Aden Adde International Airport

Forecast is more than 12 hours old.

Closest forecast is Eldoret International Airport, 611.9 nm (1,133.2 km) W. Retrieved 2019/10/18 12:12 UTC (15 hours ago):

TAF TAF HKEL 181100Z 1812/1912 23005KT 9999 FEW022CB BKN023 BKN080 BECMG 1812/1815 -TSRA FEW019CB BKN020 BKN080 BECMG 1818/1821 09005KT NSW FEW021 BKN080 BECMG 1906/1909 04005KT FEW022CB BKN024